createdAt,value
2022-10-14T00:00:17.978Z,61.90
2022-10-14T00:01:22.245Z,60.17
2022-10-14T00:02:24.595Z,60.78
2022-10-14T00:03:26.887Z,66.33
2022-10-14T00:04:29.479Z,66.35
2022-10-14T00:05:31.973Z,61.20
2022-10-14T00:06:34.653Z,68.11
2022-10-14T00:07:37.366Z,64.75
2022-10-14T00:08:40.277Z,64.85
2022-10-14T00:09:42.173Z,67.34
2022-10-14T00:10:44.169Z,67.08
2022-10-14T00:11:46.151Z,66.43
2022-10-14T00:12:48.198Z,60.15
2022-10-14T00:13:52.641Z,66.62
2022-10-14T00:14:55.386Z,67.03
2022-10-14T00:15:57.301Z,67.29
2022-10-14T00:16:59.300Z,65.70
2022-10-14T00:18:01.181Z,71.59
2022-10-14T00:19:05.167Z,62.19
2022-10-14T00:20:08.375Z,65.24
2022-10-14T00:21:10.418Z,64.75
2022-10-14T00:22:12.494Z,67.25
2022-10-14T00:23:14.389Z,64.22
2022-10-14T00:24:16.763Z,65.31
2022-10-14T00:25:18.649Z,63.69
2022-10-14T00:26:26.026Z,59.95
2022-10-14T00:27:27.944Z,63.36
2022-10-14T00:28:30.355Z,65.54
2022-10-14T00:29:32.454Z,60.65
2022-10-14T00:30:34.446Z,59.87
2022-10-14T00:31:36.484Z,58.95
2022-10-14T00:32:38.373Z,59.01
2022-10-14T00:33:40.474Z,59.30
2022-10-14T00:34:43.386Z,64.79
2022-10-14T00:35:53.995Z,62.84
2022-10-14T00:36:56.056Z,65.53
2022-10-14T00:37:58.656Z,68.61
2022-10-14T00:39:00.888Z,66.98
2022-10-14T00:40:04.672Z,63.14
2022-10-14T00:41:07.084Z,65.12
2022-10-14T00:42:14.645Z,65.69
2022-10-14T00:43:16.688Z,60.07
2022-10-14T00:44:22.660Z,58.37
2022-10-14T00:45:24.865Z,66.01
2022-10-14T00:46:30.386Z,55.99
2022-10-14T00:47:33.159Z,60.42
2022-10-14T00:48:35.433Z,61.85
2022-10-14T00:49:40.667Z,61.27
2022-10-14T00:50:44.720Z,58.98
2022-10-14T00:51:50.416Z,66.98
2022-10-14T00:52:52.540Z,62.56
2022-10-14T00:53:55.522Z,60.79
2022-10-14T00:55:06.809Z,65.00
2022-10-14T00:56:10.421Z,56.38
2022-10-14T00:57:13.462Z,57.41
2022-10-14T00:58:15.905Z,54.98
2022-10-14T00:59:18.449Z,61.02
2022-10-14T01:00:21.978Z,55.77
2022-10-14T01:01:24.375Z,60.21
2022-10-14T01:02:26.497Z,58.85
2022-10-14T01:03:28.519Z,57.03
2022-10-14T01:04:30.968Z,59.65
2022-10-14T01:05:36.637Z,55.07
2022-10-14T01:06:48.145Z,57.94
2022-10-14T01:08:06.060Z,59.88
2022-10-14T01:09:26.518Z,58.79
2022-10-14T01:10:35.397Z,56.58
2022-10-14T01:12:23.466Z,55.57
2022-10-14T01:14:26.463Z,57.89
2022-10-14T01:15:32.286Z,56.32
2022-10-14T01:16:46.736Z,60.40
2022-10-14T01:18:04.210Z,63.36
2022-10-14T01:19:10.173Z,60.87
2022-10-14T01:20:39.323Z,64.88
2022-10-14T01:22:03.120Z,68.85
2022-10-14T01:23:11.855Z,71.31
2022-10-14T01:24:23.608Z,65.43
2022-10-14T01:25:46.503Z,65.02
2022-10-14T01:26:58.345Z,63.51
2022-10-14T01:28:30.190Z,61.77
2022-10-14T01:30:08.207Z,65.05
2022-10-14T01:31:16.748Z,63.96
2022-10-14T01:36:11.031Z,64.36
2022-10-14T01:37:16.819Z,67.44
2022-10-14T01:38:22.493Z,69.11
2022-10-14T01:39:34.500Z,63.58
2022-10-14T01:40:49.616Z,62.77
2022-10-14T01:42:07.194Z,68.58
2022-10-14T01:43:11.846Z,64.28
2022-10-14T01:44:17.454Z,60.81
2022-10-14T01:45:22.802Z,59.02
2022-10-14T01:46:26.905Z,60.84
2022-10-14T01:47:32.287Z,69.04
2022-10-14T01:48:37.902Z,70.31
2022-10-14T01:49:43.597Z,65.28
2022-10-14T01:50:49.252Z,63.93
2022-10-14T01:51:54.936Z,61.83
2022-10-14T01:53:13.036Z,67.43
2022-10-14T01:54:18.754Z,62.87
2022-10-14T01:55:24.460Z,62.61
2022-10-14T01:56:30.356Z,63.91
2022-10-14T01:57:35.562Z,64.16
2022-10-14T01:58:39.853Z,62.73
2022-10-14T01:59:43.485Z,57.83
2022-10-14T02:00:45.654Z,66.83
2022-10-14T02:01:47.689Z,62.13
2022-10-14T02:02:49.901Z,57.56
2022-10-14T02:03:51.784Z,63.35
2022-10-14T02:04:53.659Z,65.31
2022-10-14T02:06:02.427Z,64.32
2022-10-14T02:07:17.267Z,62.84
2022-10-14T02:08:35.277Z,61.86
2022-10-14T02:10:08.244Z,71.53
2022-10-14T02:11:17.012Z,65.22
2022-10-14T02:12:28.754Z,68.69
2022-10-14T02:13:54.588Z,61.00
2022-10-14T02:15:15.180Z,64.97
2022-10-14T02:16:32.875Z,65.19
2022-10-14T02:17:44.790Z,61.71
2022-10-14T02:19:22.248Z,62.77
2022-10-14T02:20:31.054Z,58.45
2022-10-14T02:21:39.542Z,54.88
2022-10-14T02:22:45.435Z,54.46
2022-10-14T02:23:51.420Z,58.04
2022-10-14T02:24:57.154Z,57.09
2022-10-14T02:26:01.249Z,51.34
2022-10-14T02:27:06.980Z,49.72
2022-10-14T02:28:12.663Z,49.66
2022-10-14T02:29:17.504Z,53.41
2022-10-14T02:30:20.983Z,53.94
2022-10-14T02:31:25.847Z,43.56
2022-10-14T02:32:29.012Z,49.72
2022-10-14T02:33:34.696Z,50.04
2022-10-14T02:34:37.444Z,49.13
2022-10-14T02:35:41.380Z,57.78
2022-10-14T02:36:45.711Z,52.34
2022-10-14T02:37:49.380Z,59.86
2022-10-14T02:38:54.811Z,53.73
2022-10-14T02:40:15.507Z,54.09
2022-10-14T02:41:20.466Z,59.49
2022-10-14T02:42:22.777Z,56.53
2022-10-14T02:43:25.396Z,58.63
2022-10-14T02:44:27.483Z,54.95
2022-10-14T02:45:29.575Z,56.53
2022-10-14T02:46:32.949Z,56.50
2022-10-14T02:47:34.971Z,56.26
2022-10-14T02:48:37.366Z,59.11
2022-10-14T02:49:39.288Z,52.92
2022-10-14T02:50:41.692Z,56.59
2022-10-14T02:51:43.779Z,60.35
2022-10-14T02:52:46.508Z,51.67
2022-10-14T02:53:48.581Z,54.00
2022-10-14T02:54:50.468Z,56.67
2022-10-14T02:55:52.329Z,50.51
2022-10-14T02:56:54.608Z,56.89
2022-10-14T02:57:56.661Z,56.85
2022-10-14T02:58:59.200Z,50.92
2022-10-14T03:00:01.409Z,47.29
2022-10-14T03:01:03.351Z,48.10
2022-10-14T03:02:06.702Z,44.93
2022-10-14T03:03:09.105Z,49.41
2022-10-14T03:04:11.078Z,47.23
2022-10-14T03:05:13.119Z,50.79
2022-10-14T03:06:15.338Z,48.33
2022-10-14T03:07:17.436Z,47.13
2022-10-14T03:08:19.482Z,43.69
2022-10-14T03:09:21.339Z,48.08
2022-10-14T03:10:23.536Z,47.17
2022-10-14T03:11:25.413Z,51.02
2022-10-14T03:12:27.319Z,47.14
2022-10-14T03:13:29.732Z,51.55
2022-10-14T03:14:31.943Z,47.33
2022-10-14T03:15:33.936Z,46.67
2022-10-14T03:16:36.031Z,52.55
2022-10-14T03:17:38.020Z,55.35
2022-10-14T03:18:39.905Z,53.57
2022-10-14T03:19:42.324Z,54.25
2022-10-14T03:20:45.488Z,52.27
2022-10-14T03:21:47.455Z,54.89
2022-10-14T03:22:49.565Z,53.88
2022-10-14T03:23:51.518Z,57.32
2022-10-14T03:24:53.733Z,58.37
2022-10-14T03:25:55.850Z,55.33
2022-10-14T03:26:58.150Z,55.03
2022-10-14T03:28:00.303Z,48.99
2022-10-14T03:29:02.189Z,58.79
2022-10-14T03:30:05.302Z,56.30
2022-10-14T03:31:07.496Z,60.84
2022-10-14T03:32:09.440Z,55.04
2022-10-14T03:33:14.755Z,55.52
2022-10-14T03:34:15.140Z,61.10
2022-10-14T03:35:17.264Z,55.49
2022-10-14T03:36:19.353Z,59.20
2022-10-14T03:37:21.306Z,57.73
2022-10-14T03:38:23.424Z,62.71
2022-10-14T03:39:25.320Z,55.29
2022-10-14T03:40:27.569Z,53.13
2022-10-14T03:41:29.812Z,59.30
2022-10-14T03:42:31.702Z,57.52
2022-10-14T03:43:33.891Z,55.05
2022-10-14T03:44:35.791Z,58.23
2022-10-14T03:45:37.920Z,56.11
2022-10-14T03:46:40.146Z,55.37
2022-10-14T03:47:42.044Z,56.99
2022-10-14T03:48:44.230Z,54.99
2022-10-14T03:49:46.354Z,54.31
2022-10-14T03:50:48.488Z,54.90
2022-10-14T03:51:50.725Z,59.21
2022-10-14T03:52:55.594Z,53.33
2022-10-14T03:53:56.428Z,53.23
2022-10-14T03:54:58.870Z,51.40
2022-10-14T03:56:01.086Z,50.08
2022-10-14T03:57:03.139Z,49.69
2022-10-14T03:58:05.229Z,50.99
2022-10-14T03:59:07.448Z,54.58
2022-10-14T04:00:12.936Z,50.57
2022-10-14T04:01:15.170Z,54.69
2022-10-14T04:02:17.062Z,58.03
2022-10-14T04:03:19.159Z,47.90
2022-10-14T04:04:21.075Z,48.75
2022-10-14T04:05:22.945Z,48.05
2022-10-14T04:06:24.972Z,56.51
2022-10-14T04:07:27.184Z,58.13
2022-10-14T04:08:29.176Z,50.74
2022-10-14T04:09:31.240Z,45.92
2022-10-14T04:10:33.777Z,48.61
2022-10-14T04:11:35.780Z,49.33
2022-10-14T04:12:37.749Z,44.67
2022-10-14T04:13:39.953Z,57.33
2022-10-14T04:14:41.879Z,48.47
2022-10-14T04:15:43.774Z,54.49
2022-10-14T04:16:49.635Z,45.85
2022-10-14T04:17:49.859Z,48.65
2022-10-14T04:18:52.490Z,49.13
2022-10-14T04:19:54.430Z,40.53
2022-10-14T04:21:05.558Z,40.82
2022-10-14T04:22:07.641Z,39.93
2022-10-14T04:23:09.655Z,38.23
2022-10-14T04:24:12.135Z,44.93
2022-10-14T04:25:14.202Z,45.89
2022-10-14T04:26:16.927Z,39.95
2022-10-14T04:27:18.793Z,43.85
2022-10-14T04:28:20.943Z,37.42
2022-10-14T04:29:23.375Z,39.33
2022-10-14T04:30:25.581Z,33.14
2022-10-14T04:31:27.688Z,35.58
2022-10-14T04:32:29.663Z,38.86
2022-10-14T04:33:31.551Z,35.87
2022-10-14T04:34:33.563Z,33.25
2022-10-14T04:35:35.489Z,35.33
2022-10-14T04:36:37.914Z,33.18
2022-10-14T04:37:40.232Z,36.79
2022-10-14T04:38:42.824Z,36.60
2022-10-14T04:39:45.380Z,30.69
2022-10-14T04:40:47.389Z,31.33
2022-10-14T04:41:49.297Z,29.30
2022-10-14T04:42:55.569Z,31.52
2022-10-14T04:43:58.755Z,29.18
2022-10-14T04:45:02.139Z,28.61
2022-10-14T04:46:04.426Z,30.91
2022-10-14T04:47:06.352Z,31.92
2022-10-14T04:48:08.403Z,28.67
2022-10-14T04:49:13.276Z,36.91
2022-10-14T04:50:17.382Z,29.36
2022-10-14T04:51:19.424Z,27.41
2022-10-14T04:52:23.624Z,28.50
2022-10-14T04:53:25.913Z,32.02
2022-10-14T04:54:27.796Z,28.95
2022-10-14T04:55:29.754Z,24.99
2022-10-14T04:56:31.741Z,23.73
2022-10-14T04:57:33.621Z,28.31
2022-10-14T04:58:35.735Z,27.48
2022-10-14T04:59:37.655Z,26.27
2022-10-14T05:00:41.525Z,26.47
2022-10-14T05:01:43.499Z,24.71
2022-10-14T05:02:45.850Z,27.20
2022-10-14T05:03:47.866Z,29.59
2022-10-14T05:04:49.742Z,26.25
2022-10-14T05:05:51.725Z,25.26
2022-10-14T05:06:53.809Z,26.25
2022-10-14T05:08:04.266Z,28.31
2022-10-14T05:09:07.323Z,29.58
2022-10-14T05:10:10.327Z,25.66
2022-10-14T05:11:13.472Z,27.60
2022-10-14T05:12:15.458Z,22.05
2022-10-14T05:13:18.070Z,28.49
2022-10-14T05:14:19.956Z,25.60
2022-10-14T05:15:22.278Z,23.83
2022-10-14T05:16:24.416Z,26.53
2022-10-14T05:17:26.510Z,19.59
2022-10-14T05:18:28.588Z,24.79
2022-10-14T05:19:30.608Z,25.33
2022-10-14T05:20:32.750Z,25.81
2022-10-14T05:21:34.696Z,22.05
2022-10-14T05:22:36.816Z,22.27
2022-10-14T05:23:38.818Z,26.79
2022-10-14T05:24:40.908Z,21.97
2022-10-14T05:25:42.810Z,24.84
2022-10-14T05:26:44.878Z,21.68
2022-10-14T05:27:46.773Z,21.23
2022-10-14T05:28:51.335Z,20.94
2022-10-14T05:29:53.601Z,23.55
2022-10-14T05:30:55.614Z,21.31
2022-10-14T05:31:57.528Z,21.90
2022-10-14T05:32:59.411Z,20.91
2022-10-14T05:34:01.389Z,22.68
2022-10-14T05:35:04.311Z,22.43
2022-10-14T05:36:07.629Z,26.04
2022-10-14T05:37:09.616Z,18.57
2022-10-14T05:38:13.227Z,20.79
2022-10-14T05:39:18.369Z,21.57
2022-10-14T05:40:21.908Z,21.61
2022-10-14T05:41:27.064Z,22.92
2022-10-14T05:42:29.247Z,27.89
2022-10-14T05:43:32.837Z,23.09
2022-10-14T05:44:35.174Z,22.02
2022-10-14T05:45:37.046Z,21.63
2022-10-14T05:46:39.071Z,23.47
2022-10-14T05:47:43.142Z,23.66
2022-10-14T05:48:45.053Z,24.65
2022-10-14T05:49:46.957Z,23.59
2022-10-14T05:50:49.061Z,23.41
2022-10-14T05:51:51.146Z,20.98
2022-10-14T05:52:53.017Z,23.45
2022-10-14T05:53:55.011Z,23.44
2022-10-14T05:54:56.882Z,22.89
2022-10-14T05:56:04.716Z,23.67
2022-10-14T05:57:06.777Z,22.73
2022-10-14T05:58:09.030Z,23.13
2022-10-14T05:59:13.026Z,20.75
2022-10-14T06:00:15.833Z,20.67
2022-10-14T06:01:17.722Z,21.91
2022-10-14T06:02:19.966Z,22.12
2022-10-14T06:03:22.264Z,19.41
2022-10-14T06:04:24.392Z,17.46
2022-10-14T06:05:26.997Z,16.77
2022-10-14T06:06:29.293Z,21.84
2022-10-14T06:07:31.339Z,21.11
2022-10-14T06:08:33.336Z,22.07
2022-10-14T06:09:36.505Z,18.62
2022-10-14T06:10:38.514Z,21.72
2022-10-14T06:11:40.698Z,17.90
2022-10-14T06:12:42.580Z,17.50
2022-10-14T06:13:44.488Z,19.32
2022-10-14T06:14:46.399Z,20.38
2022-10-14T06:15:48.422Z,18.65
2022-10-14T06:16:50.793Z,20.95
2022-10-14T06:17:52.881Z,23.24
2022-10-14T06:18:55.094Z,19.77
2022-10-14T06:19:56.995Z,17.83
2022-10-14T06:20:59.933Z,18.85
2022-10-14T06:22:01.826Z,17.54
2022-10-14T06:23:04.115Z,20.29
2022-10-14T06:24:06.722Z,16.77
2022-10-14T06:25:09.019Z,20.05
2022-10-14T06:26:12.219Z,19.79
2022-10-14T06:27:14.103Z,22.12
2022-10-14T06:28:16.018Z,21.97
2022-10-14T06:29:18.177Z,18.51
2022-10-14T06:30:20.880Z,19.27
2022-10-14T06:31:23.237Z,16.79
2022-10-14T06:32:25.312Z,19.14
2022-10-14T06:33:30.790Z,21.47
2022-10-14T06:34:34.353Z,18.09
2022-10-14T06:35:36.362Z,15.53
2022-10-14T06:36:38.361Z,14.09
2022-10-14T06:37:40.352Z,15.17
2022-10-14T06:38:42.599Z,13.66
2022-10-14T06:39:44.508Z,16.97
2022-10-14T06:40:52.286Z,17.51
2022-10-14T06:41:54.264Z,14.75
2022-10-14T06:42:57.966Z,16.45
2022-10-14T06:44:00.038Z,14.33
2022-10-14T06:45:02.149Z,14.55
2022-10-14T06:46:04.847Z,15.04
2022-10-14T06:47:06.996Z,12.31
2022-10-14T06:48:09.015Z,14.77
2022-10-14T06:49:11.128Z,12.27
2022-10-14T06:50:13.116Z,13.87
2022-10-14T06:51:15.404Z,14.69
2022-10-14T06:52:18.108Z,16.45
2022-10-14T06:53:21.152Z,16.29
2022-10-14T06:54:23.333Z,15.39
2022-10-14T06:55:25.540Z,15.93
2022-10-14T06:56:27.570Z,17.22
2022-10-14T06:57:29.549Z,17.54
2022-10-14T06:58:32.482Z,14.01
2022-10-14T06:59:34.443Z,16.03
2022-10-14T07:00:36.622Z,13.78
2022-10-14T07:01:38.873Z,15.23
2022-10-14T07:02:41.128Z,14.54
2022-10-14T07:03:43.066Z,15.35
2022-10-14T07:04:45.057Z,15.19
2022-10-14T07:05:47.096Z,14.93
2022-10-14T07:06:49.282Z,15.44
2022-10-14T07:07:51.355Z,14.76
2022-10-14T07:08:53.302Z,15.45
2022-10-14T07:09:55.296Z,14.94
2022-10-14T07:10:57.760Z,12.79
2022-10-14T07:11:59.974Z,14.14
2022-10-14T07:13:02.375Z,14.91
2022-10-14T07:14:04.284Z,12.44
2022-10-14T07:15:07.426Z,16.25
2022-10-14T07:16:09.745Z,13.67
2022-10-14T07:17:13.021Z,14.31
2022-10-14T07:18:15.387Z,15.65
2022-10-14T07:19:17.364Z,14.05
2022-10-14T07:20:19.411Z,17.57
2022-10-14T07:21:21.467Z,15.61
2022-10-14T07:22:23.844Z,12.59
2022-10-14T07:23:26.187Z,18.25
2022-10-14T07:24:28.216Z,14.37
2022-10-14T07:25:30.299Z,14.82
2022-10-14T07:26:32.586Z,13.05
2022-10-14T07:27:34.767Z,14.31
2022-10-14T07:28:36.847Z,16.72
2022-10-14T07:29:38.894Z,12.95
2022-10-14T07:30:41.097Z,13.20
2022-10-14T07:31:43.589Z,14.20
2022-10-14T07:32:45.691Z,14.94
2022-10-14T07:33:47.803Z,14.37
2022-10-14T07:34:51.338Z,13.02
2022-10-14T07:35:53.526Z,11.34
2022-10-14T07:36:55.544Z,13.05
2022-10-14T07:37:58.667Z,12.35
2022-10-14T07:39:00.880Z,13.76
2022-10-14T07:40:04.780Z,13.89
2022-10-14T07:41:09.989Z,14.49
2022-10-14T07:42:12.031Z,15.08
2022-10-14T07:43:14.151Z,13.11
2022-10-14T07:44:16.548Z,17.11
2022-10-14T07:45:18.552Z,13.38
2022-10-14T07:46:23.472Z,13.01
2022-10-14T07:47:25.393Z,12.80
2022-10-14T07:48:38.496Z,10.75
2022-10-14T07:49:33.715Z,12.37
2022-10-14T07:50:35.713Z,14.87
2022-10-14T07:51:38.853Z,12.99
2022-10-14T07:52:40.745Z,16.47
2022-10-14T07:53:42.682Z,10.49
2022-10-14T07:54:45.363Z,13.68
2022-10-14T07:55:47.357Z,11.89
2022-10-14T07:56:49.860Z,16.29
2022-10-14T07:57:51.756Z,13.95
2022-10-14T07:58:54.854Z,11.83
2022-10-14T07:59:56.843Z,11.99
2022-10-14T08:00:59.041Z,9.11
2022-10-14T08:02:01.328Z,14.79
2022-10-14T08:03:03.579Z,10.91
2022-10-14T08:04:05.472Z,12.86
2022-10-14T08:05:32.980Z,12.16
2022-10-14T08:06:12.923Z,11.39
2022-10-14T08:07:14.858Z,11.95
2022-10-14T08:08:17.916Z,12.55
2022-10-14T08:09:20.541Z,9.70
2022-10-14T08:10:22.852Z,11.25
2022-10-14T08:11:27.356Z,11.12
2022-10-14T08:12:29.726Z,9.61
2022-10-14T08:13:32.715Z,10.77
2022-10-14T08:14:34.625Z,11.07
2022-10-14T08:15:39.245Z,9.33
2022-10-14T08:16:41.271Z,11.85
2022-10-14T08:17:43.605Z,11.45
2022-10-14T08:18:47.263Z,10.01
2022-10-14T08:19:50.251Z,9.59
2022-10-14T08:20:52.671Z,10.48
2022-10-14T08:21:54.558Z,7.41
2022-10-14T08:22:56.459Z,9.56
2022-10-14T08:23:58.639Z,8.91
2022-10-14T08:25:00.508Z,9.59
2022-10-14T08:26:03.456Z,9.55
2022-10-14T08:27:05.383Z,8.63
2022-10-14T08:28:07.909Z,5.85
2022-10-14T08:29:10.711Z,7.52
2022-10-14T08:30:12.895Z,8.67
2022-10-14T08:31:17.167Z,7.99
2022-10-14T08:32:19.387Z,7.49
2022-10-14T08:33:21.692Z,8.71
2022-10-14T08:34:23.772Z,7.91
2022-10-14T08:35:25.805Z,6.91
2022-10-14T08:36:28.179Z,8.04
2022-10-14T08:37:30.139Z,6.93
2022-10-14T08:38:32.426Z,5.47
2022-10-14T08:39:34.338Z,6.70
2022-10-14T08:41:15.175Z,8.08
2022-10-14T08:42:24.338Z,7.85
2022-10-14T08:43:47.158Z,7.03
2022-10-14T08:44:52.835Z,8.26
2022-10-14T08:45:58.526Z,7.83
2022-10-14T08:47:04.206Z,6.49
2022-10-14T08:48:12.772Z,8.27
2022-10-14T08:49:40.019Z,6.38
2022-10-14T08:52:10.767Z,6.53
2022-10-14T08:53:25.956Z,6.72
2022-10-14T08:54:43.192Z,8.44
2022-10-14T08:55:48.499Z,8.97
2022-10-14T08:56:51.962Z,5.49
2022-10-14T08:58:00.421Z,6.19
2022-10-14T08:59:09.151Z,5.53
2022-10-14T09:00:13.371Z,5.29
2022-10-14T09:01:19.472Z,8.49
2022-10-14T09:02:45.886Z,7.06
2022-10-14T09:03:48.816Z,6.08
2022-10-14T09:04:50.903Z,5.73
2022-10-14T09:05:58.795Z,5.70
2022-10-14T09:07:02.527Z,6.85
2022-10-14T09:08:05.432Z,5.05
2022-10-14T09:09:28.160Z,6.79
2022-10-14T09:10:33.460Z,5.54
2022-10-14T09:11:42.070Z,5.15
2022-10-14T09:12:44.644Z,6.02
2022-10-14T09:13:50.395Z,6.12
2022-10-14T09:15:05.273Z,5.19
2022-10-14T09:17:24.935Z,7.61
2022-10-14T09:18:36.261Z,5.33
2022-10-14T09:20:43.203Z,5.44
2022-10-14T09:21:53.894Z,6.55
2022-10-14T09:23:05.440Z,6.43
2022-10-14T09:24:17.212Z,4.15
2022-10-14T09:25:19.222Z,3.54
2022-10-14T09:26:21.198Z,3.42
2022-10-14T09:27:23.923Z,4.93
2022-10-14T09:28:42.063Z,3.20
2022-10-14T09:29:56.910Z,3.56
2022-10-14T09:30:59.081Z,3.10
2022-10-14T09:32:07.230Z,5.03
2022-10-14T09:33:12.968Z,4.19
2022-10-14T09:34:20.270Z,3.34
2022-10-14T09:35:32.224Z,4.46
2022-10-14T09:36:34.344Z,4.71
2022-10-14T09:37:36.551Z,8.60
2022-10-14T09:38:38.651Z,3.41
2022-10-14T09:39:41.113Z,1.85
2022-10-14T09:40:46.592Z,2.96
2022-10-14T09:41:52.297Z,4.34
2022-10-14T09:43:06.846Z,3.03
2022-10-14T09:44:18.953Z,4.06
2022-10-14T09:45:23.613Z,2.90
2022-10-14T09:46:25.913Z,3.63
2022-10-14T09:47:28.430Z,3.94
2022-10-14T09:48:45.875Z,3.25
2022-10-14T09:49:48.112Z,2.52
2022-10-14T09:50:53.921Z,4.68
2022-10-14T09:51:56.749Z,3.91
2022-10-14T09:53:09.252Z,3.49
2022-10-14T09:54:12.536Z,2.73
2022-10-14T09:55:18.208Z,2.73
2022-10-14T09:56:41.588Z,2.81
2022-10-14T09:57:42.023Z,3.02
2022-10-14T09:58:47.126Z,4.01
2022-10-14T09:59:52.719Z,4.96
2022-10-14T10:00:56.894Z,3.05
2022-10-14T10:02:02.298Z,2.92
2022-10-14T10:03:05.416Z,4.24
2022-10-14T10:04:32.663Z,3.72
2022-10-14T10:05:35.571Z,3.23
2022-10-14T10:06:41.349Z,5.62
2022-10-14T10:07:43.477Z,6.30
2022-10-14T10:08:58.880Z,3.03
2022-10-14T10:10:04.077Z,7.58
2022-10-14T10:12:38.813Z,3.16
2022-10-14T10:13:43.960Z,3.19
2022-10-14T10:14:49.640Z,5.80
2022-10-14T10:15:58.324Z,2.79
2022-10-14T10:17:13.289Z,5.11
2022-10-14T10:18:18.989Z,4.94
2022-10-14T10:19:27.456Z,5.41
2022-10-14T10:20:30.366Z,3.83
2022-10-14T10:21:32.522Z,2.59
2022-10-14T10:22:34.820Z,4.60
2022-10-14T10:23:41.289Z,4.31
2022-10-14T10:24:46.304Z,3.18
2022-10-14T10:25:48.531Z,2.17
2022-10-14T10:26:51.049Z,3.78
2022-10-14T10:27:56.647Z,5.81
2022-10-14T10:29:02.278Z,4.44
2022-10-14T10:30:19.884Z,3.66
2022-10-14T10:31:29.051Z,4.33
2022-10-14T10:32:37.863Z,6.71
2022-10-14T10:33:52.574Z,5.67
2022-10-14T10:35:07.495Z,4.49
2022-10-14T10:36:14.498Z,2.94
2022-10-14T10:37:38.161Z,2.79
2022-10-14T10:39:18.900Z,4.12
2022-10-14T10:40:27.735Z,3.76
2022-10-14T10:42:02.389Z,2.48
2022-10-14T10:43:08.441Z,4.29
2022-10-14T10:44:16.917Z,3.91
2022-10-14T10:45:51.912Z,5.29
2022-10-14T10:47:04.006Z,3.15
2022-10-14T10:48:15.473Z,3.94
2022-10-14T10:49:47.444Z,2.72
2022-10-14T10:50:53.397Z,3.68
2022-10-14T10:53:21.102Z,4.26
2022-10-14T10:54:35.341Z,3.67
2022-10-14T10:55:58.927Z,2.83
2022-10-14T10:57:11.446Z,3.67
2022-10-14T10:58:37.310Z,5.29
2022-10-14T10:59:48.531Z,3.46
2022-10-14T11:02:21.169Z,2.88
2022-10-14T11:03:30.373Z,3.41
2022-10-14T11:04:57.033Z,4.81
2022-10-14T11:06:30.499Z,3.69
2022-10-14T11:07:45.294Z,2.45
2022-10-14T11:08:56.922Z,3.19
2022-10-14T11:10:15.186Z,3.89
2022-10-14T11:11:42.640Z,2.67
2022-10-14T11:12:54.270Z,3.35
2022-10-14T11:14:12.050Z,3.50
2022-10-14T11:15:33.238Z,3.16
2022-10-14T11:16:57.371Z,6.33
2022-10-14T11:18:06.366Z,4.11
2022-10-14T11:19:21.157Z,4.09
2022-10-14T11:20:45.214Z,4.13
2022-10-14T11:22:21.902Z,3.52
2022-10-14T11:23:50.796Z,3.19
2022-10-14T11:25:16.592Z,3.50
2022-10-14T11:26:39.282Z,3.62
2022-10-14T11:27:45.063Z,5.41
2022-10-14T11:29:03.279Z,5.31
2022-10-14T11:30:17.879Z,11.01
2022-10-14T11:31:35.844Z,5.57
2022-10-14T11:32:41.521Z,2.63
2022-10-14T11:34:20.653Z,2.50
2022-10-14T11:35:29.448Z,4.70
2022-10-14T11:36:41.265Z,6.74
2022-10-14T11:38:06.769Z,3.12
2022-10-14T11:39:30.683Z,4.21
2022-10-14T11:40:55.529Z,6.95
2022-10-14T11:43:24.878Z,2.21
2022-10-14T11:45:42.509Z,2.36
2022-10-14T11:46:48.286Z,3.55
2022-10-14T11:47:52.801Z,3.86
2022-10-14T11:49:01.228Z,3.12
2022-10-14T11:50:07.171Z,5.43
2022-10-14T11:51:12.933Z,2.96
2022-10-14T11:52:21.519Z,5.22
2022-10-14T11:53:46.627Z,2.71
2022-10-14T11:54:52.369Z,7.12
2022-10-14T11:56:04.016Z,6.39
2022-10-14T11:57:25.287Z,3.55
2022-10-14T11:58:30.523Z,3.91
2022-10-14T12:00:02.033Z,2.81
2022-10-14T12:01:17.794Z,7.04
2022-10-14T12:02:29.457Z,8.21
2022-10-14T12:03:38.240Z,5.04
2022-10-14T12:04:43.861Z,5.32
2022-10-14T12:05:52.621Z,6.02
2022-10-14T12:07:04.589Z,6.35
2022-10-14T12:08:30.419Z,5.61
2022-10-14T12:09:41.095Z,3.14
2022-10-14T12:11:50.790Z,4.64
2022-10-14T12:12:55.104Z,4.24
2022-10-14T12:14:22.286Z,5.41
2022-10-14T12:15:26.244Z,5.87
2022-10-14T12:16:29.007Z,4.13
2022-10-14T12:17:37.584Z,8.16
2022-10-14T12:18:41.770Z,5.31
2022-10-14T12:19:44.177Z,4.44
2022-10-14T12:21:02.117Z,4.21
2022-10-14T12:22:07.841Z,5.41
2022-10-14T12:23:13.521Z,3.66
2022-10-14T12:24:22.351Z,2.61
2022-10-14T12:25:27.984Z,5.34
2022-10-14T12:26:39.116Z,6.00
2022-10-14T12:27:41.434Z,3.28
2022-10-14T12:28:43.877Z,2.09
2022-10-14T12:29:49.068Z,1.83
2022-10-14T12:30:51.099Z,4.50
2022-10-14T12:32:08.992Z,3.10
2022-10-14T12:33:14.077Z,3.12
2022-10-14T12:34:33.265Z,3.57
2022-10-14T12:35:56.119Z,2.87
2022-10-14T12:36:58.196Z,3.21
2022-10-14T12:38:02.548Z,3.70
2022-10-14T12:39:20.307Z,5.96
2022-10-14T12:40:25.824Z,8.03
2022-10-14T12:41:40.049Z,8.33
2022-10-14T12:42:45.725Z,4.58
2022-10-14T12:44:03.323Z,3.77
2022-10-14T12:45:24.099Z,2.65
2022-10-14T12:46:26.405Z,3.64
2022-10-14T12:47:34.378Z,4.99
2022-10-14T12:48:40.458Z,6.77
2022-10-14T12:49:46.220Z,16.21
2022-10-14T12:50:51.518Z,26.94
2022-10-14T12:51:56.294Z,26.94
2022-10-14T12:53:01.624Z,17.16
2022-10-14T12:54:07.305Z,9.62
2022-10-14T12:55:21.634Z,6.73
2022-10-14T12:56:36.592Z,4.38
2022-10-14T12:57:41.646Z,6.70
2022-10-14T12:58:58.544Z,5.89
2022-10-14T13:00:03.791Z,3.59
2022-10-14T13:01:15.562Z,3.87
2022-10-14T13:02:39.932Z,2.42
2022-10-14T13:03:45.388Z,2.76
2022-10-14T13:06:27.106Z,3.42
2022-10-14T13:07:40.073Z,3.27
2022-10-14T13:08:36.920Z,3.69
2022-10-14T13:09:38.934Z,3.97
2022-10-14T13:10:46.790Z,5.08
2022-10-14T13:11:57.431Z,2.74
2022-10-14T13:12:59.848Z,3.00
2022-10-14T13:14:01.951Z,3.90
2022-10-14T13:15:16.746Z,2.43
2022-10-14T13:16:28.833Z,3.25
2022-10-14T13:17:45.610Z,2.46
2022-10-14T13:18:53.610Z,1.87
2022-10-14T13:19:55.982Z,3.33
2022-10-14T13:20:58.380Z,4.03
2022-10-14T13:22:05.124Z,2.99
2022-10-14T13:23:29.498Z,2.45
2022-10-14T13:24:34.932Z,2.34
2022-10-14T13:25:36.856Z,3.72
2022-10-14T13:26:42.691Z,2.08
2022-10-14T13:27:54.232Z,4.68
2022-10-14T13:29:00.002Z,1.94
2022-10-14T13:30:17.824Z,4.01
2022-10-14T13:31:23.506Z,2.41
2022-10-14T13:32:32.351Z,2.66
2022-10-14T13:33:38.555Z,1.67
2022-10-14T13:34:52.309Z,2.08
2022-10-14T13:36:03.756Z,3.60
2022-10-14T13:37:18.436Z,4.72
2022-10-14T13:38:22.889Z,2.24
2022-10-14T13:39:25.428Z,2.88
2022-10-14T13:40:49.349Z,3.66
2022-10-14T13:41:51.285Z,2.26
2022-10-14T13:42:58.898Z,4.67
2022-10-14T13:44:01.942Z,4.32
2022-10-14T13:45:07.857Z,4.67
2022-10-14T13:46:16.884Z,2.58
2022-10-14T13:47:21.525Z,2.99
2022-10-14T13:49:46.407Z,1.62
2022-10-14T13:50:51.383Z,3.01
2022-10-14T13:52:09.099Z,1.99
2022-10-14T13:53:17.273Z,2.03
2022-10-14T13:54:25.464Z,2.61
2022-10-14T13:55:27.476Z,3.56
2022-10-14T13:56:31.823Z,2.83
2022-10-14T13:58:11.409Z,2.26
2022-10-14T13:58:40.907Z,1.44
2022-10-14T14:00:11.601Z,1.84
2022-10-14T14:00:59.586Z,2.46
2022-10-14T14:02:02.776Z,4.05
2022-10-14T14:03:11.125Z,5.37
2022-10-14T14:04:19.902Z,4.46
2022-10-14T14:05:23.126Z,4.99
2022-10-14T14:06:32.310Z,5.69
2022-10-14T14:07:59.643Z,4.92
2022-10-14T14:09:00.277Z,2.98
2022-10-14T14:10:06.260Z,6.57
2022-10-14T14:11:16.697Z,3.84
2022-10-14T14:12:13.268Z,4.22
2022-10-14T14:13:15.759Z,7.72
2022-10-14T14:14:36.518Z,14.08
2022-10-14T14:15:39.143Z,13.12
2022-10-14T14:17:49.900Z,18.16
2022-10-14T14:19:03.803Z,17.32
2022-10-14T14:19:56.290Z,17.84
2022-10-14T14:20:58.799Z,12.67
2022-10-14T14:22:26.655Z,19.63
2022-10-14T14:23:29.659Z,21.18
2022-10-14T14:24:31.868Z,22.81
2022-10-14T14:25:35.830Z,22.58
2022-10-14T14:26:39.023Z,20.86
2022-10-14T14:27:47.494Z,18.13
2022-10-14T14:28:49.489Z,19.23
2022-10-14T14:29:54.512Z,18.72
2022-10-14T14:30:56.640Z,20.74
2022-10-14T14:32:06.633Z,17.31
2022-10-14T14:33:08.456Z,21.53
2022-10-14T14:34:16.395Z,18.14
2022-10-14T14:35:22.066Z,19.46
2022-10-14T14:36:27.846Z,18.84
2022-10-14T14:38:37.896Z,17.44
2022-10-14T14:39:39.966Z,18.90
2022-10-14T14:40:42.168Z,27.61
2022-10-14T14:41:47.832Z,25.65
2022-10-14T14:42:53.417Z,34.19
2022-10-14T14:45:18.354Z,28.27
2022-10-14T14:46:38.350Z,28.22